sensor_id;sensor_type;location;lat;lon;timestamp;pressure;altitude;pressure_sealevel;temperature;humidity
75409;BME280;63979;55.644;37.734;2023-04-09T00:03:23;101217.06;;;8.61;48.79
75409;BME280;63979;55.644;37.734;2023-04-09T00:08:25;101237.22;;;8.68;48.85
75409;BME280;63979;55.644;37.734;2023-04-09T00:13:26;101213.94;;;8.50;49.38
75409;BME280;63979;55.644;37.734;2023-04-09T00:18:27;101149.66;;;8.13;48.96
75409;BME280;63979;55.644;37.734;2023-04-09T00:23:28;101233.09;;;8.59;48.85
75409;BME280;63979;55.644;37.734;2023-04-09T00:28:29;101244.47;;;8.63;49.31
75409;BME280;63979;55.644;37.734;2023-04-09T00:33:30;101234.81;;;8.60;49.39
75409;BME280;63979;55.644;37.734;2023-04-09T00:38:31;101237.22;;;8.68;48.82
75409;BME280;63979;55.644;37.734;2023-04-09T00:43:32;101241.69;;;8.67;49.06
75409;BME280;63979;55.644;37.734;2023-04-09T00:48:33;101224.19;;;8.60;49.02
75409;BME280;63979;55.644;37.734;2023-04-09T00:53:35;101228.75;;;8.57;49.28
75409;BME280;63979;55.644;37.734;2023-04-09T00:58:36;101227.25;;;8.50;49.36
75409;BME280;63979;55.644;37.734;2023-04-09T01:03:38;101225.06;;;8.37;49.96
75409;BME280;63979;55.644;37.734;2023-04-09T01:19:07;101233.44;;;8.25;51.22
75409;BME280;63979;55.644;37.734;2023-04-09T01:29:32;101228.22;;;7.97;51.68
75409;BME280;63979;55.644;37.734;2023-04-09T01:34:35;101205.00;;;7.77;52.25
75409;BME280;63979;55.644;37.734;2023-04-09T01:39:36;101192.25;;;7.62;51.97
75409;BME280;63979;55.644;37.734;2023-04-09T01:44:39;101234.91;;;7.84;52.35
75409;BME280;63979;55.644;37.734;2023-04-09T01:49:42;101182.41;;;7.39;52.70
75409;BME280;63979;55.644;37.734;2023-04-09T01:54:43;101246.22;;;7.64;52.86
75409;BME280;63979;55.644;37.734;2023-04-09T01:59:44;101236.88;;;7.53;53.40
75409;BME280;63979;55.644;37.734;2023-04-09T02:04:46;101243.16;;;7.50;53.65
75409;BME280;63979;55.644;37.734;2023-04-09T02:09:52;101233.59;;;7.44;53.61
75409;BME280;63979;55.644;37.734;2023-04-09T02:14:53;101245.00;;;7.48;53.83
75409;BME280;63979;55.644;37.734;2023-04-09T02:19:55;101223.94;;;7.42;53.47
75409;BME280;63979;55.644;37.734;2023-04-09T02:24:56;101225.06;;;7.35;54.14
75409;BME280;63979;55.644;37.734;2023-04-09T02:29:57;101224.91;;;7.39;54.38
75409;BME280;63979;55.644;37.734;2023-04-09T02:34:58;101240.75;;;7.42;54.10
75409;BME280;63979;55.644;37.734;2023-04-09T02:39:59;101237.53;;;7.33;53.94
75409;BME280;63979;55.644;37.734;2023-04-09T02:45:00;101224.38;;;7.28;53.95
75409;BME280;63979;55.644;37.734;2023-04-09T02:50:01;101236.72;;;7.31;54.15
75409;BME280;63979;55.644;37.734;2023-04-09T02:55:02;101238.31;;;7.36;53.90
75409;BME280;63979;55.644;37.734;2023-04-09T03:00:04;101235.50;;;7.41;53.97
75409;BME280;63979;55.644;37.734;2023-04-09T03:05:06;101232.16;;;7.34;53.95
75409;BME280;63979;55.644;37.734;2023-04-09T03:10:07;101183.56;;;7.04;53.94
75409;BME280;63979;55.644;37.734;2023-04-09T03:15:09;101232.94;;;7.38;54.24
75409;BME280;63979;55.644;37.734;2023-04-09T03:20:11;101247.38;;;7.56;53.32
75409;BME280;63979;55.644;37.734;2023-04-09T03:25:12;101244.56;;;7.60;53.50
75409;BME280;63979;55.644;37.734;2023-04-09T03:30:14;101255.03;;;7.66;53.40
75409;BME280;63979;55.644;37.734;2023-04-09T03:35:15;101234.69;;;7.65;53.58
75409;BME280;63979;55.644;37.734;2023-04-09T03:40:16;101243.25;;;7.73;53.35
75409;BME280;63979;55.644;37.734;2023-04-09T03:45:17;101242.13;;;7.80;53.02
75409;BME280;63979;55.644;37.734;2023-04-09T03:50:18;101242.81;;;7.86;53.29
75409;BME280;63979;55.644;37.734;2023-04-09T03:55:20;101191.25;;;7.66;52.64
75409;BME280;63979;55.644;37.734;2023-04-09T04:00:21;101247.50;;;8.04;52.29
75409;BME280;63979;55.644;37.734;2023-04-09T04:05:23;101248.97;;;8.12;52.34
75409;BME280;63979;55.644;37.734;2023-04-09T04:10:25;101237.25;;;8.18;51.98
75409;BME280;63979;55.644;37.734;2023-04-09T04:15:27;101252.47;;;8.39;51.69
75409;BME280;63979;55.644;37.734;2023-04-09T04:20:28;101203.03;;;8.34;51.13
75409;BME280;63979;55.644;37.734;2023-04-09T04:25:30;101248.63;;;8.71;50.51
75409;BME280;63979;55.644;37.734;2023-04-09T04:30:31;101232.78;;;8.90;50.21
75409;BME280;63979;55.644;37.734;2023-04-09T04:35:32;101244.09;;;9.19;49.94
75409;BME280;63979;55.644;37.734;2023-04-09T04:40:33;101234.31;;;9.41;49.06
75409;BME280;63979;55.644;37.734;2023-04-09T04:45:34;101235.94;;;9.65;48.78
75409;BME280;63979;55.644;37.734;2023-04-09T04:50:35;101232.63;;;9.81;48.17
75409;BME280;63979;55.644;37.734;2023-04-09T04:55:37;101236.16;;;10.01;47.77
75409;BME280;63979;55.644;37.734;2023-04-09T05:00:39;101237.72;;;10.27;47.29
75409;BME280;63979;55.644;37.734;2023-04-09T05:05:40;101222.78;;;10.44;46.65
75409;BME280;63979;55.644;37.734;2023-04-09T05:10:41;101232.91;;;10.93;45.87
75409;BME280;63979;55.644;37.734;2023-04-09T05:15:43;101234.97;;;11.24;45.49
75409;BME280;63979;55.644;37.734;2023-04-09T05:20:45;101223.16;;;12.34;42.60
75409;BME280;63979;55.644;37.734;2023-04-09T05:25:49;101235.31;;;14.41;38.17
75409;BME280;63979;55.644;37.734;2023-04-09T05:30:50;101239.66;;;16.08;35.06
75409;BME280;63979;55.644;37.734;2023-04-09T05:35:51;101237.69;;;16.99;33.21
75409;BME280;63979;55.644;37.734;2023-04-09T05:40:53;101245.13;;;17.45;33.12
75409;BME280;63979;55.644;37.734;2023-04-09T05:45:54;101247.72;;;18.41;31.61
75409;BME280;63979;55.644;37.734;2023-04-09T05:50:55;101255.81;;;19.96;28.85
75409;BME280;63979;55.644;37.734;2023-04-09T05:55:56;101249.66;;;21.76;26.97
75409;BME280;63979;55.644;37.734;2023-04-09T06:01:00;101255.13;;;22.05;26.20
75409;BME280;63979;55.644;37.734;2023-04-09T06:06:01;101253.94;;;22.37;25.38
75409;BME280;63979;55.644;37.734;2023-04-09T06:11:02;101248.63;;;22.45;25.75
75409;BME280;63979;55.644;37.734;2023-04-09T06:16:05;101251.94;;;22.20;25.58
75409;BME280;63979;55.644;37.734;2023-04-09T06:21:07;101262.28;;;22.06;26.70
75409;BME280;63979;55.644;37.734;2023-04-09T06:26:08;101266.13;;;23.89;24.14
75409;BME280;63979;55.644;37.734;2023-04-09T06:31:10;101218.75;;;23.90;22.86
75409;BME280;63979;55.644;37.734;2023-04-09T06:36:11;101275.31;;;24.24;22.83
75409;BME280;63979;55.644;37.734;2023-04-09T06:41:12;101264.91;;;23.11;23.69
75409;BME280;63979;55.644;37.734;2023-04-09T06:46:14;101264.38;;;21.74;25.39
75409;BME280;63979;55.644;37.734;2023-04-09T06:51:17;101233.88;;;20.61;27.11
75409;BME280;63979;55.644;37.734;2023-04-09T06:56:17;101261.94;;;19.66;28.19
75409;BME280;63979;55.644;37.734;2023-04-09T07:01:18;101267.72;;;18.95;29.73
75409;BME280;63979;55.644;37.734;2023-04-09T07:06:19;101263.63;;;18.10;30.86
75409;BME280;63979;55.644;37.734;2023-04-09T07:11:20;101263.63;;;21.43;26.34
75409;BME280;63979;55.644;37.734;2023-04-09T07:16:21;101272.34;;;22.72;24.03
75409;BME280;63979;55.644;37.734;2023-04-09T07:21:23;101285.22;;;23.72;22.12
75409;BME280;63979;55.644;37.734;2023-04-09T07:26:23;101278.72;;;22.34;23.27
75409;BME280;63979;55.644;37.734;2023-04-09T07:31:25;101275.47;;;20.71;26.02
75409;BME280;63979;55.644;37.734;2023-04-09T07:36:26;101290.47;;;20.34;26.89
75409;BME280;63979;55.644;37.734;2023-04-09T07:41:27;101282.63;;;20.31;27.30
75409;BME280;63979;55.644;37.734;2023-04-09T07:46:28;101277.03;;;21.25;25.34
75409;BME280;63979;55.644;37.734;2023-04-09T07:51:29;101280.81;;;22.59;22.89
75409;BME280;63979;55.644;37.734;2023-04-09T07:56:30;101276.16;;;22.79;22.44
75409;BME280;63979;55.644;37.734;2023-04-09T08:01:32;101271.44;;;22.25;22.79
75409;BME280;63979;55.644;37.734;2023-04-09T08:06:32;101272.88;;;22.29;22.53
75409;BME280;63979;55.644;37.734;2023-04-09T08:11:34;101264.84;;;22.18;23.22
75409;BME280;63979;55.644;37.734;2023-04-09T08:16:35;101233.50;;;23.34;21.35
75409;BME280;63979;55.644;37.734;2023-04-09T08:21:37;101266.59;;;24.38;20.44
75409;BME280;63979;55.644;37.734;2023-04-09T08:26:39;101262.56;;;22.13;22.95
75409;BME280;63979;55.644;37.734;2023-04-09T08:31:40;101268.44;;;22.94;22.79
75409;BME280;63979;55.644;37.734;2023-04-09T08:36:44;101223.59;;;23.97;21.29
75409;BME280;63979;55.644;37.734;2023-04-09T08:41:46;101217.34;;;23.86;20.95
75409;BME280;63979;55.644;37.734;2023-04-09T08:46:48;101252.22;;;21.68;23.38
75409;BME280;63979;55.644;37.734;2023-04-09T08:51:49;101226.31;;;21.05;24.60
75409;BME280;63979;55.644;37.734;2023-04-09T08:56:50;101247.38;;;22.01;23.94
75409;BME280;63979;55.644;37.734;2023-04-09T09:02:11;101261.03;;;21.32;23.97
75409;BME280;63979;55.644;37.734;2023-04-09T09:07:13;101248.00;;;20.95;24.72
75409;BME280;63979;55.644;37.734;2023-04-09T09:12:32;101249.69;;;20.86;24.69
75409;BME280;63979;55.644;37.734;2023-04-09T09:17:55;101251.09;;;22.19;23.04
75409;BME280;63979;55.644;37.734;2023-04-09T09:22:56;101247.22;;;25.01;19.73
75409;BME280;63979;55.644;37.734;2023-04-09T09:28:06;101248.16;;;25.93;18.45
75409;BME280;63979;55.644;37.734;2023-04-09T09:33:09;101241.94;;;27.58;16.83
75409;BME280;63979;55.644;37.734;2023-04-09T09:38:10;101238.22;;;30.81;14.29
75409;BME280;63979;55.644;37.734;2023-04-09T09:43:12;101241.56;;;28.53;15.58
75409;BME280;63979;55.644;37.734;2023-04-09T09:48:14;101247.72;;;28.17;16.10
75409;BME280;63979;55.644;37.734;2023-04-09T09:53:16;101231.13;;;28.11;16.37
75409;BME280;63979;55.644;37.734;2023-04-09T09:58:27;101223.53;;;28.36;16.33
75409;BME280;63979;55.644;37.734;2023-04-09T10:03:33;101229.53;;;28.16;16.74
75409;BME280;63979;55.644;37.734;2023-04-09T10:08:39;101234.50;;;29.03;15.70
75409;BME280;63979;55.644;37.734;2023-04-09T10:13:46;101210.16;;;24.73;19.12
75409;BME280;63979;55.644;37.734;2023-04-09T10:18:49;101177.31;;;23.69;20.18
75409;BME280;63979;55.644;37.734;2023-04-09T10:23:51;101195.25;;;22.25;22.67
75409;BME280;63979;55.644;37.734;2023-04-09T10:29:07;101209.91;;;20.24;25.04
75409;BME280;63979;55.644;37.734;2023-04-09T10:34:09;101159.97;;;22.42;21.58
75409;BME280;63979;55.644;37.734;2023-04-09T10:39:11;101171.91;;;24.73;19.62
75409;BME280;63979;55.644;37.734;2023-04-09T10:44:21;101161.91;;;24.04;19.63
75409;BME280;63979;55.644;37.734;2023-04-09T10:49:24;101208.69;;;24.09;19.76
75409;BME280;63979;55.644;37.734;2023-04-09T10:59:44;101159.50;;;26.51;17.89
75409;BME280;63979;55.644;37.734;2023-04-09T11:10:05;101206.97;;;31.08;13.64
75409;BME280;63979;55.644;37.734;2023-04-09T11:15:17;101185.97;;;32.61;12.65
75409;BME280;63979;55.644;37.734;2023-04-09T11:20:20;101172.63;;;33.54;11.56
75409;BME280;63979;55.644;37.734;2023-04-09T11:25:24;101194.91;;;32.49;12.39
75409;BME280;63979;55.644;37.734;2023-04-09T11:30:26;101199.53;;;27.92;15.48
75409;BME280;63979;55.644;37.734;2023-04-09T11:35:28;101151.66;;;28.47;15.42
75409;BME280;63979;55.644;37.734;2023-04-09T11:40:30;101177.03;;;27.20;15.95
75409;BME280;63979;55.644;37.734;2023-04-09T11:45:31;101168.03;;;26.31;16.62
75409;BME280;63979;55.644;37.734;2023-04-09T11:50:32;101164.75;;;23.76;19.32
75409;BME280;63979;55.644;37.734;2023-04-09T11:55:33;101160.50;;;24.43;18.81
75409;BME280;63979;55.644;37.734;2023-04-09T12:00:34;101130.44;;;23.66;19.32
75409;BME280;63979;55.644;37.734;2023-04-09T12:05:44;101155.88;;;22.19;21.35
75409;BME280;63979;55.644;37.734;2023-04-09T12:10:46;101150.94;;;21.47;22.85
75409;BME280;63979;55.644;37.734;2023-04-09T12:15:48;101147.13;;;21.00;21.93
75409;BME280;63979;55.644;37.734;2023-04-09T12:20:49;101150.84;;;20.28;23.13
75409;BME280;63979;55.644;37.734;2023-04-09T12:25:50;101145.56;;;20.27;24.46
75409;BME280;63979;55.644;37.734;2023-04-09T12:30:51;101140.13;;;19.43;24.22
75409;BME280;63979;55.644;37.734;2023-04-09T12:35:52;101148.38;;;19.10;25.18
75409;BME280;63979;55.644;37.734;2023-04-09T12:40:53;101102.78;;;18.72;24.78
75409;BME280;63979;55.644;37.734;2023-04-09T12:45:54;101130.72;;;18.83;25.12
75409;BME280;63979;55.644;37.734;2023-04-09T12:51:15;101136.69;;;19.09;25.45
75409;BME280;63979;55.644;37.734;2023-04-09T12:56:36;101130.88;;;19.02;25.17
75409;BME280;63979;55.644;37.734;2023-04-09T13:01:37;101123.75;;;19.13;25.78
75409;BME280;63979;55.644;37.734;2023-04-09T13:06:40;101125.59;;;19.44;25.08
75409;BME280;63979;55.644;37.734;2023-04-09T13:11:41;101138.13;;;20.90;23.81
75409;BME280;63979;55.644;37.734;2023-04-09T13:16:42;101140.13;;;22.23;21.89
75409;BME280;63979;55.644;37.734;2023-04-09T13:21:43;101121.75;;;21.49;22.42
75409;BME280;63979;55.644;37.734;2023-04-09T13:27:06;101071.63;;;19.94;24.33
75409;BME280;63979;55.644;37.734;2023-04-09T13:32:13;101134.31;;;19.48;24.51
75409;BME280;63979;55.644;37.734;2023-04-09T13:37:15;101124.69;;;19.23;25.69
75409;BME280;63979;55.644;37.734;2023-04-09T13:42:17;101112.94;;;19.01;25.58
75409;BME280;63979;55.644;37.734;2023-04-09T13:47:36;101122.09;;;18.89;25.41
75409;BME280;63979;55.644;37.734;2023-04-09T13:52:56;101125.56;;;18.47;26.14
75409;BME280;63979;55.644;37.734;2023-04-09T13:58:16;101105.88;;;17.89;27.24
75409;BME280;63979;55.644;37.734;2023-04-09T14:03:16;101110.16;;;17.56;27.67
75409;BME280;63979;55.644;37.734;2023-04-09T14:08:17;101102.09;;;17.32;27.81
75409;BME280;63979;55.644;37.734;2023-04-09T14:13:18;101116.44;;;17.22;28.25
75409;BME280;63979;55.644;37.734;2023-04-09T14:18:19;101094.63;;;17.01;27.99
75409;BME280;63979;55.644;37.734;2023-04-09T14:23:20;101106.72;;;16.95;28.45
75409;BME280;63979;55.644;37.734;2023-04-09T14:28:21;101068.31;;;16.55;28.57
75409;BME280;63979;55.644;37.734;2023-04-09T15:11:13;101069.53;;;14.57;33.57
75409;BME280;63979;55.644;37.734;2023-04-09T15:16:20;101105.03;;;14.89;33.53
75409;BME280;63979;55.644;37.734;2023-04-09T15:21:22;101099.53;;;14.91;33.94
75409;BME280;63979;55.644;37.734;2023-04-09T15:26:24;101095.09;;;15.04;33.61
75409;BME280;63979;55.644;37.734;2023-04-09T15:31:26;101095.63;;;14.96;33.77
75409;BME280;63979;55.644;37.734;2023-04-09T15:36:28;101087.25;;;15.01;33.89
75409;BME280;63979;55.644;37.734;2023-04-09T15:41:30;101103.84;;;15.20;33.65
75409;BME280;63979;55.644;37.734;2023-04-09T15:46:33;101076.59;;;15.00;34.05
75409;BME280;63979;55.644;37.734;2023-04-09T15:51:34;101058.84;;;14.97;33.71
75409;BME280;63979;55.644;37.734;2023-04-09T15:56:36;101048.56;;;14.89;33.43
75409;BME280;63979;55.644;37.734;2023-04-09T16:01:39;101060.50;;;14.85;34.10
75409;BME280;63979;55.644;37.734;2023-04-09T16:06:40;101087.88;;;14.92;33.82
75409;BME280;63979;55.644;37.734;2023-04-09T16:11:41;101042.66;;;14.57;33.28
75409;BME280;63979;55.644;37.734;2023-04-09T16:16:42;101086.06;;;14.78;33.70
75409;BME280;63979;55.644;37.734;2023-04-09T16:21:46;101101.34;;;14.78;34.10
75409;BME280;63979;55.644;37.734;2023-04-09T16:26:48;101081.00;;;14.74;34.10
75409;BME280;63979;55.644;37.734;2023-04-09T16:31:50;101103.56;;;14.57;35.20
75409;BME280;63979;55.644;37.734;2023-04-09T16:36:52;101108.28;;;14.39;36.55
75409;BME280;63979;55.644;37.734;2023-04-09T16:41:53;101110.59;;;14.17;37.79
75409;BME280;63979;55.644;37.734;2023-04-09T16:46:54;101113.50;;;13.99;38.04
75409;BME280;63979;55.644;37.734;2023-04-09T16:51:56;101105.88;;;13.78;38.32
75409;BME280;63979;55.644;37.734;2023-04-09T16:56:57;101105.97;;;13.62;38.63
75409;BME280;63979;55.644;37.734;2023-04-09T17:01:58;101110.09;;;13.67;38.54
75409;BME280;63979;55.644;37.734;2023-04-09T17:06:59;101118.25;;;13.66;39.66
75409;BME280;63979;55.644;37.734;2023-04-09T17:12:00;101103.91;;;13.51;39.07
75409;BME280;63979;55.644;37.734;2023-04-09T17:17:01;101106.09;;;13.45;39.62
75409;BME280;63979;55.644;37.734;2023-04-09T17:22:03;101117.03;;;13.41;39.27
75409;BME280;63979;55.644;37.734;2023-04-09T17:27:05;101102.25;;;13.34;39.02
75409;BME280;63979;55.644;37.734;2023-04-09T17:32:06;101124.75;;;13.32;38.78
75409;BME280;63979;55.644;37.734;2023-04-09T17:37:07;101114.19;;;13.13;39.38
75409;BME280;63979;55.644;37.734;2023-04-09T17:42:09;101123.38;;;13.09;39.12
75409;BME280;63979;55.644;37.734;2023-04-09T17:47:11;101124.88;;;12.99;38.94
75409;BME280;63979;55.644;37.734;2023-04-09T17:52:13;101112.97;;;12.89;39.21
75409;BME280;63979;55.644;37.734;2023-04-09T17:57:14;101111.22;;;12.88;39.22
75409;BME280;63979;55.644;37.734;2023-04-09T18:02:15;101112.50;;;12.96;38.56
75409;BME280;63979;55.644;37.734;2023-04-09T18:07:16;101118.22;;;12.90;38.86
75409;BME280;63979;55.644;37.734;2023-04-09T18:12:17;101108.88;;;12.97;37.94
75409;BME280;63979;55.644;37.734;2023-04-09T18:17:19;101109.84;;;12.80;37.63
75409;BME280;63979;55.644;37.734;2023-04-09T18:22:20;101108.72;;;12.85;36.00
75409;BME280;63979;55.644;37.734;2023-04-09T18:27:22;101107.00;;;12.84;35.75
75409;BME280;63979;55.644;37.734;2023-04-09T18:32:23;101062.66;;;12.46;36.09
75409;BME280;63979;55.644;37.734;2023-04-09T18:37:25;101077.28;;;12.57;35.80
75409;BME280;63979;55.644;37.734;2023-04-09T18:42:26;101086.53;;;12.51;35.52
75409;BME280;63979;55.644;37.734;2023-04-09T18:47:28;101113.75;;;12.59;35.94
75409;BME280;63979;55.644;37.734;2023-04-09T18:52:29;101119.75;;;12.47;36.21
75409;BME280;63979;55.644;37.734;2023-04-09T18:57:31;101124.44;;;12.28;36.32
75409;BME280;63979;55.644;37.734;2023-04-09T19:02:32;101086.88;;;11.96;36.68
75409;BME280;63979;55.644;37.734;2023-04-09T19:07:34;101125.75;;;12.03;36.88
75409;BME280;63979;55.644;37.734;2023-04-09T19:12:36;101122.63;;;11.95;37.10
75409;BME280;63979;55.644;37.734;2023-04-09T19:17:37;101117.16;;;11.81;37.87
75409;BME280;63979;55.644;37.734;2023-04-09T19:22:38;101126.38;;;11.74;38.18
75409;BME280;63979;55.644;37.734;2023-04-09T19:27:39;101110.38;;;11.56;38.15
75409;BME280;63979;55.644;37.734;2023-04-09T19:32:40;101121.38;;;11.50;38.84
75409;BME280;63979;55.644;37.734;2023-04-09T19:37:41;101107.06;;;11.34;39.49
75409;BME280;63979;55.644;37.734;2023-04-09T19:42:42;101073.00;;;11.03;39.29
75409;BME280;63979;55.644;37.734;2023-04-09T19:47:43;101112.25;;;11.20;39.24
75409;BME280;63979;55.644;37.734;2023-04-09T19:52:44;101136.63;;;11.14;39.68
75409;BME280;63979;55.644;37.734;2023-04-09T19:57:45;101126.44;;;11.03;39.35
75409;BME280;63979;55.644;37.734;2023-04-09T20:02:47;101131.84;;;11.02;39.52
75409;BME280;63979;55.644;37.734;2023-04-09T20:07:49;101113.94;;;10.86;39.46
75409;BME280;63979;55.644;37.734;2023-04-09T20:12:50;101116.13;;;10.78;39.40
75409;BME280;63979;55.644;37.734;2023-04-09T20:17:52;101132.00;;;10.81;39.71
75409;BME280;63979;55.644;37.734;2023-04-09T20:22:53;101110.31;;;10.69;39.62
75409;BME280;63979;55.644;37.734;2023-04-09T20:27:54;101121.47;;;10.59;40.32
75409;BME280;63979;55.644;37.734;2023-04-09T20:32:55;101117.91;;;10.40;41.02
75409;BME280;63979;55.644;37.734;2023-04-09T20:37:56;101126.22;;;10.34;40.47
75409;BME280;63979;55.644;37.734;2023-04-09T20:42:57;101134.41;;;10.11;48.01
75409;BME280;63979;55.644;37.734;2023-04-09T20:47:59;101129.50;;;9.81;45.48
75409;BME280;63979;55.644;37.734;2023-04-09T20:53:00;101119.56;;;9.85;41.34
75409;BME280;63979;55.644;37.734;2023-04-09T20:58:01;101095.41;;;9.88;41.64
75409;BME280;63979;55.644;37.734;2023-04-09T21:03:03;101119.50;;;10.05;40.90
75409;BME280;63979;55.644;37.734;2023-04-09T21:08:04;101129.78;;;10.14;40.96
75409;BME280;63979;55.644;37.734;2023-04-09T21:13:05;101132.19;;;10.20;39.96
75409;BME280;63979;55.644;37.734;2023-04-09T21:18:06;101125.25;;;10.16;39.94
75409;BME280;63979;55.644;37.734;2023-04-09T21:23:07;101124.44;;;10.14;40.26
75409;BME280;63979;55.644;37.734;2023-04-09T21:28:08;101122.44;;;10.19;39.88
75409;BME280;63979;55.644;37.734;2023-04-09T21:33:09;101138.34;;;10.22;40.19
75409;BME280;63979;55.644;37.734;2023-04-09T21:38:10;101120.69;;;10.18;39.65
75409;BME280;63979;55.644;37.734;2023-04-09T21:43:11;101135.53;;;10.25;39.52
75409;BME280;63979;55.644;37.734;2023-04-09T21:48:12;101129.13;;;10.09;39.62
75409;BME280;63979;55.644;37.734;2023-04-09T21:53:14;101131.94;;;10.06;39.79
75409;BME280;63979;55.644;37.734;2023-04-09T21:58:15;101131.53;;;10.15;39.56
75409;BME280;63979;55.644;37.734;2023-04-09T22:03:16;101084.63;;;9.91;43.04
75409;BME280;63979;55.644;37.734;2023-04-09T22:08:17;101066.09;;;9.67;40.26
75409;BME280;63979;55.644;37.734;2023-04-09T22:13:18;101127.34;;;10.10;40.00
75409;BME280;63979;55.644;37.734;2023-04-09T22:18:19;101133.41;;;10.13;39.61
75409;BME280;63979;55.644;37.734;2023-04-09T22:23:20;101129.53;;;10.20;39.60
75409;BME280;63979;55.644;37.734;2023-04-09T22:28:21;101102.84;;;10.20;39.26
75409;BME280;63979;55.644;37.734;2023-04-09T22:33:22;101092.44;;;10.14;40.07
75409;BME280;63979;55.644;37.734;2023-04-09T22:38:23;101132.56;;;10.31;40.38
75409;BME280;63979;55.644;37.734;2023-04-09T22:43:24;101122.97;;;10.27;40.55
75409;BME280;63979;55.644;37.734;2023-04-09T22:48:25;101100.19;;;10.00;41.29
75409;BME280;63979;55.644;37.734;2023-04-09T22:53:28;101122.59;;;9.96;40.36
75409;BME280;63979;55.644;37.734;2023-04-09T22:58:29;101112.72;;;9.98;39.88
75409;BME280;63979;55.644;37.734;2023-04-09T23:03:30;101130.78;;;10.12;40.15
75409;BME280;63979;55.644;37.734;2023-04-09T23:08:31;101121.63;;;10.17;40.10
75409;BME280;63979;55.644;37.734;2023-04-09T23:13:32;101135.66;;;10.22;39.54
75409;BME280;63979;55.644;37.734;2023-04-09T23:18:34;101082.44;;;9.80;39.89
75409;BME280;63979;55.644;37.734;2023-04-09T23:23:36;101129.31;;;10.05;39.94
75409;BME280;63979;55.644;37.734;2023-04-09T23:28:39;101125.47;;;9.91;40.11
75409;BME280;63979;55.644;37.734;2023-04-09T23:33:40;101118.50;;;9.89;39.72
75409;BME280;63979;55.644;37.734;2023-04-09T23:38:42;101116.38;;;9.77;42.04
75409;BME280;63979;55.644;37.734;2023-04-09T23:43:46;101124.63;;;9.70;42.12
75409;BME280;63979;55.644;37.734;2023-04-09T23:48:47;101124.25;;;9.80;40.26
75409;BME280;63979;55.644;37.734;2023-04-09T23:53:48;101134.50;;;9.89;42.03
75409;BME280;63979;55.644;37.734;2023-04-09T23:58:49;101119.03;;;9.77;42.71
